Port Everglades, Florida
Current Conditions -  °F | °C
As of 10:53 AM on Thursday 30 Oct 2014 (Local Time) from KFLL Reporting Station
Few Clouds Few Clouds  
Wind Chill: 83°   Ceiling: Unl
Heat Index: 85°   Visibility: 10mi
Dew Point: 66°   Wind: 5mph
Humidity: 56%   Direction: 330°NNW
Pressure: 29.97"   Gusts: NA
Location:  26.0999°N, 80.132°W
Report Text: KFLL 301453Z 33004KT 10SM FEW035 28/19 A2997 RMK AO2 SLP149 T02830189 50005
Loading
Personal Weather Stations






























Interactive Weather Map
Tropical Storm Tracking
New forecast layout! Learn more

10-Day Weather Forecast

Advertisements
Track Severe Weather on mobile